METAR Data
IDs: Format: Raw Decoded Include TAF

Data at: 0346 UTC 24 Jun 2021

METAR for:KFFO (Wright Patterson AFB, OH, US)
Text:KFFO 240256Z AUTO 15006KT 10SM FEW120 SCT150 20/09 A3016 RMK AO2 SLP212 T02020088 53001
Temperature: 20.2°C ( 68°F)
Dewpoint: 8.8°C ( 48°F) [RH = 48%]
Pressure (altimeter):30.16 inches Hg (1021.4 mb) [Sea level pressure: 1021.2 mb]
Winds:from the SSE (150 degrees) at 7 MPH (6 knots; 3.1 m/s)
Visibility:10 or more sm (16+ km)
Ceiling:at least 12,000 feet AGL
Clouds: few clouds at 12000 feet AGL, scattered clouds at 15000 feet AGL
QC Flag:automated observation with no human augmentation